sensor_id;sensor_type;location;lat;lon;timestamp;P1;durP1;ratioP1;P2;durP2;ratioP2
73632;SDS011;61927;50.080;14.418;2023-02-13T00:02:12;41.50;;;20.00;;
73632;SDS011;61927;50.080;14.418;2023-02-13T00:04:38;34.05;;;18.50;;
73632;SDS011;61927;50.080;14.418;2023-02-13T00:07:04;44.70;;;21.45;;
73632;SDS011;61927;50.080;14.418;2023-02-13T00:09:29;36.65;;;21.00;;
73632;SDS011;61927;50.080;14.418;2023-02-13T00:11:55;34.78;;;19.60;;
73632;SDS011;61927;50.080;14.418;2023-02-13T00:14:20;38.50;;;19.50;;
73632;SDS011;61927;50.080;14.418;2023-02-13T00:16:46;39.22;;;21.70;;
73632;SDS011;61927;50.080;14.418;2023-02-13T00:19:12;40.10;;;21.58;;
73632;SDS011;61927;50.080;14.418;2023-02-13T00:21:37;38.88;;;20.83;;
73632;SDS011;61927;50.080;14.418;2023-02-13T00:24:03;38.72;;;20.65;;
73632;SDS011;61927;50.080;14.418;2023-02-13T00:26:29;43.85;;;22.10;;
73632;SDS011;61927;50.080;14.418;2023-02-13T00:28:55;43.50;;;23.08;;
73632;SDS011;61927;50.080;14.418;2023-02-13T00:31:21;45.88;;;21.80;;
73632;SDS011;61927;50.080;14.418;2023-02-13T00:33:47;37.83;;;20.77;;
73632;SDS011;61927;50.080;14.418;2023-02-13T00:36:14;39.15;;;21.42;;
73632;SDS011;61927;50.080;14.418;2023-02-13T00:38:42;34.17;;;19.10;;
73632;SDS011;61927;50.080;14.418;2023-02-13T00:41:08;33.78;;;18.40;;
73632;SDS011;61927;50.080;14.418;2023-02-13T00:43:34;32.85;;;18.50;;
73632;SDS011;61927;50.080;14.418;2023-02-13T00:46:00;45.95;;;20.90;;
73632;SDS011;61927;50.080;14.418;2023-02-13T00:48:27;42.65;;;21.40;;
73632;SDS011;61927;50.080;14.418;2023-02-13T00:50:53;48.08;;;23.58;;
73632;SDS011;61927;50.080;14.418;2023-02-13T00:53:20;46.17;;;23.20;;
73632;SDS011;61927;50.080;14.418;2023-02-13T00:55:47;42.78;;;23.25;;
73632;SDS011;61927;50.080;14.418;2023-02-13T00:58:13;43.80;;;23.20;;
73632;SDS011;61927;50.080;14.418;2023-02-13T01:00:39;47.10;;;23.58;;
73632;SDS011;61927;50.080;14.418;2023-02-13T01:03:05;42.83;;;22.63;;
73632;SDS011;61927;50.080;14.418;2023-02-13T01:05:31;41.90;;;23.02;;
73632;SDS011;61927;50.080;14.418;2023-02-13T01:07:57;41.65;;;22.20;;
73632;SDS011;61927;50.080;14.418;2023-02-13T01:10:23;43.45;;;22.08;;
73632;SDS011;61927;50.080;14.418;2023-02-13T01:12:49;41.83;;;20.88;;
73632;SDS011;61927;50.080;14.418;2023-02-13T01:15:15;43.58;;;22.92;;
73632;SDS011;61927;50.080;14.418;2023-02-13T01:17:41;39.33;;;21.88;;
73632;SDS011;61927;50.080;14.418;2023-02-13T01:20:07;41.95;;;21.73;;
73632;SDS011;61927;50.080;14.418;2023-02-13T01:22:34;45.00;;;20.80;;
73632;SDS011;61927;50.080;14.418;2023-02-13T01:24:59;44.25;;;20.95;;
73632;SDS011;61927;50.080;14.418;2023-02-13T01:27:28;44.70;;;21.75;;
73632;SDS011;61927;50.080;14.418;2023-02-13T01:29:54;40.42;;;21.25;;
73632;SDS011;61927;50.080;14.418;2023-02-13T01:32:20;44.47;;;21.75;;
73632;SDS011;61927;50.080;14.418;2023-02-13T01:34:46;39.80;;;21.58;;
73632;SDS011;61927;50.080;14.418;2023-02-13T01:37:12;38.47;;;20.92;;
73632;SDS011;61927;50.080;14.418;2023-02-13T01:39:38;42.95;;;21.83;;
73632;SDS011;61927;50.080;14.418;2023-02-13T01:42:05;42.00;;;21.60;;
73632;SDS011;61927;50.080;14.418;2023-02-13T01:44:54;48.75;;;21.92;;
73632;SDS011;61927;50.080;14.418;2023-02-13T01:50:12;36.38;;;20.80;;
73632;SDS011;61927;50.080;14.418;2023-02-13T01:52:47;45.50;;;22.02;;
73632;SDS011;61927;50.080;14.418;2023-02-13T01:55:17;51.40;;;23.35;;
73632;SDS011;61927;50.080;14.418;2023-02-13T01:57:45;44.53;;;23.95;;
73632;SDS011;61927;50.080;14.418;2023-02-13T02:00:17;40.63;;;22.92;;
73632;SDS011;61927;50.080;14.418;2023-02-13T02:02:49;45.40;;;22.45;;
73632;SDS011;61927;50.080;14.418;2023-02-13T02:05:18;40.20;;;22.10;;
73632;SDS011;61927;50.080;14.418;2023-02-13T02:07:47;41.55;;;21.33;;
73632;SDS011;61927;50.080;14.418;2023-02-13T02:10:14;39.35;;;20.17;;
73632;SDS011;61927;50.080;14.418;2023-02-13T02:15:34;36.13;;;19.38;;
73632;SDS011;61927;50.080;14.418;2023-02-13T02:18:00;41.25;;;20.08;;
73632;SDS011;61927;50.080;14.418;2023-02-13T02:26:29;41.08;;;19.25;;
73632;SDS011;61927;50.080;14.418;2023-02-13T02:32:22;44.03;;;19.60;;
73632;SDS011;61927;50.080;14.418;2023-02-13T02:35:17;36.08;;;19.25;;
73632;SDS011;61927;50.080;14.418;2023-02-13T02:38:12;40.60;;;19.48;;
73632;SDS011;61927;50.080;14.418;2023-02-13T02:46:32;35.23;;;18.17;;
73632;SDS011;61927;50.080;14.418;2023-02-13T02:49:06;34.10;;;17.67;;
73632;SDS011;61927;50.080;14.418;2023-02-13T02:57:26;30.27;;;16.85;;
73632;SDS011;61927;50.080;14.418;2023-02-13T03:00:15;29.70;;;15.93;;
73632;SDS011;61927;50.080;14.418;2023-02-13T03:03:03;29.55;;;16.30;;
73632;SDS011;61927;50.080;14.418;2023-02-13T03:05:50;32.20;;;17.75;;
73632;SDS011;61927;50.080;14.418;2023-02-13T03:08:43;33.83;;;18.15;;
73632;SDS011;61927;50.080;14.418;2023-02-13T03:11:34;37.25;;;18.25;;
73632;SDS011;61927;50.080;14.418;2023-02-13T03:14:19;36.75;;;17.95;;
73632;SDS011;61927;50.080;14.418;2023-02-13T03:16:45;34.45;;;17.00;;
73632;SDS011;61927;50.080;14.418;2023-02-13T03:19:41;34.95;;;17.77;;
73632;SDS011;61927;50.080;14.418;2023-02-13T03:28:05;29.83;;;16.65;;
73632;SDS011;61927;50.080;14.418;2023-02-13T03:31:06;28.35;;;16.13;;
73632;SDS011;61927;50.080;14.418;2023-02-13T03:39:52;31.13;;;16.50;;
73632;SDS011;61927;50.080;14.418;2023-02-13T03:45:17;37.17;;;15.80;;
73632;SDS011;61927;50.080;14.418;2023-02-13T03:48:06;27.85;;;16.02;;
73632;SDS011;61927;50.080;14.418;2023-02-13T03:50:53;27.25;;;14.80;;
73632;SDS011;61927;50.080;14.418;2023-02-13T03:53:21;30.48;;;14.45;;
73632;SDS011;61927;50.080;14.418;2023-02-13T03:55:48;29.75;;;15.35;;
73632;SDS011;61927;50.080;14.418;2023-02-13T03:58:35;28.42;;;15.07;;
73632;SDS011;61927;50.080;14.418;2023-02-13T04:01:26;30.58;;;15.85;;
73632;SDS011;61927;50.080;14.418;2023-02-13T04:03:56;27.80;;;15.65;;
73632;SDS011;61927;50.080;14.418;2023-02-13T04:06:45;28.50;;;15.93;;
73632;SDS011;61927;50.080;14.418;2023-02-13T04:09:16;31.73;;;16.58;;
73632;SDS011;61927;50.080;14.418;2023-02-13T04:17:30;30.80;;;16.55;;
73632;SDS011;61927;50.080;14.418;2023-02-13T04:20:00;31.98;;;15.75;;
73632;SDS011;61927;50.080;14.418;2023-02-13T04:22:26;29.88;;;15.70;;
73632;SDS011;61927;50.080;14.418;2023-02-13T04:24:52;26.75;;;14.88;;
73632;SDS011;61927;50.080;14.418;2023-02-13T04:27:17;32.42;;;16.23;;
73632;SDS011;61927;50.080;14.418;2023-02-13T04:29:43;30.40;;;15.20;;
73632;SDS011;61927;50.080;14.418;2023-02-13T04:32:09;29.60;;;15.20;;
73632;SDS011;61927;50.080;14.418;2023-02-13T04:34:35;32.30;;;15.25;;
73632;SDS011;61927;50.080;14.418;2023-02-13T04:37:01;28.02;;;15.10;;
73632;SDS011;61927;50.080;14.418;2023-02-13T04:39:27;26.98;;;15.93;;
73632;SDS011;61927;50.080;14.418;2023-02-13T04:41:53;25.20;;;14.63;;
73632;SDS011;61927;50.080;14.418;2023-02-13T04:44:18;28.77;;;15.13;;
73632;SDS011;61927;50.080;14.418;2023-02-13T04:46:44;27.50;;;14.75;;
73632;SDS011;61927;50.080;14.418;2023-02-13T04:49:10;26.95;;;15.30;;
73632;SDS011;61927;50.080;14.418;2023-02-13T04:51:35;28.58;;;16.10;;
73632;SDS011;61927;50.080;14.418;2023-02-13T04:54:01;31.60;;;15.43;;
73632;SDS011;61927;50.080;14.418;2023-02-13T04:56:27;28.02;;;15.35;;
73632;SDS011;61927;50.080;14.418;2023-02-13T04:58:53;25.92;;;15.38;;
73632;SDS011;61927;50.080;14.418;2023-02-13T05:01:20;29.25;;;14.85;;
73632;SDS011;61927;50.080;14.418;2023-02-13T05:03:46;29.08;;;15.43;;
73632;SDS011;61927;50.080;14.418;2023-02-13T05:06:12;28.17;;;14.95;;
73632;SDS011;61927;50.080;14.418;2023-02-13T05:08:38;34.53;;;15.65;;
73632;SDS011;61927;50.080;14.418;2023-02-13T05:11:03;28.27;;;15.10;;
73632;SDS011;61927;50.080;14.418;2023-02-13T05:13:29;27.90;;;15.43;;
73632;SDS011;61927;50.080;14.418;2023-02-13T05:15:55;32.13;;;15.50;;
73632;SDS011;61927;50.080;14.418;2023-02-13T05:18:21;33.22;;;15.02;;
73632;SDS011;61927;50.080;14.418;2023-02-13T05:20:46;26.05;;;15.57;;
73632;SDS011;61927;50.080;14.418;2023-02-13T05:23:32;31.38;;;14.77;;
73632;SDS011;61927;50.080;14.418;2023-02-13T05:25:57;30.35;;;15.23;;
73632;SDS011;61927;50.080;14.418;2023-02-13T05:28:23;34.05;;;16.20;;
73632;SDS011;61927;50.080;14.418;2023-02-13T05:33:33;27.80;;;15.32;;
73632;SDS011;61927;50.080;14.418;2023-02-13T05:35:58;33.92;;;15.60;;
73632;SDS011;61927;50.080;14.418;2023-02-13T05:38:24;33.40;;;15.73;;
73632;SDS011;61927;50.080;14.418;2023-02-13T05:40:49;29.02;;;16.73;;
73632;SDS011;61927;50.080;14.418;2023-02-13T05:43:15;34.38;;;16.33;;
73632;SDS011;61927;50.080;14.418;2023-02-13T05:45:40;36.58;;;18.23;;
73632;SDS011;61927;50.080;14.418;2023-02-13T05:48:06;30.45;;;17.20;;
73632;SDS011;61927;50.080;14.418;2023-02-13T05:50:32;36.67;;;17.30;;
73632;SDS011;61927;50.080;14.418;2023-02-13T05:52:57;31.73;;;17.25;;
73632;SDS011;61927;50.080;14.418;2023-02-13T05:55:23;33.92;;;16.75;;
73632;SDS011;61927;50.080;14.418;2023-02-13T05:57:48;34.35;;;17.35;;
73632;SDS011;61927;50.080;14.418;2023-02-13T06:00:14;30.00;;;16.63;;
73632;SDS011;61927;50.080;14.418;2023-02-13T06:02:40;33.75;;;16.25;;
73632;SDS011;61927;50.080;14.418;2023-02-13T06:05:06;35.10;;;18.50;;
73632;SDS011;61927;50.080;14.418;2023-02-13T06:07:32;34.78;;;19.15;;
73632;SDS011;61927;50.080;14.418;2023-02-13T06:09:57;32.78;;;17.15;;
73632;SDS011;61927;50.080;14.418;2023-02-13T06:12:24;25.77;;;16.42;;
73632;SDS011;61927;50.080;14.418;2023-02-13T06:14:49;36.25;;;18.17;;
73632;SDS011;61927;50.080;14.418;2023-02-13T06:17:15;37.78;;;16.38;;
73632;SDS011;61927;50.080;14.418;2023-02-13T06:19:40;32.40;;;17.40;;
73632;SDS011;61927;50.080;14.418;2023-02-13T06:22:06;34.05;;;17.73;;
73632;SDS011;61927;50.080;14.418;2023-02-13T06:24:32;34.03;;;16.08;;
73632;SDS011;61927;50.080;14.418;2023-02-13T06:26:57;36.47;;;17.45;;
73632;SDS011;61927;50.080;14.418;2023-02-13T06:29:23;37.63;;;17.67;;
73632;SDS011;61927;50.080;14.418;2023-02-13T06:31:48;34.35;;;15.77;;
73632;SDS011;61927;50.080;14.418;2023-02-13T06:34:14;30.75;;;17.95;;
73632;SDS011;61927;50.080;14.418;2023-02-13T06:36:40;40.30;;;17.75;;
73632;SDS011;61927;50.080;14.418;2023-02-13T06:39:08;32.35;;;16.95;;
73632;SDS011;61927;50.080;14.418;2023-02-13T06:41:34;35.70;;;17.50;;
73632;SDS011;61927;50.080;14.418;2023-02-13T06:43:59;29.85;;;17.45;;
73632;SDS011;61927;50.080;14.418;2023-02-13T06:46:25;34.35;;;16.00;;
73632;SDS011;61927;50.080;14.418;2023-02-13T06:48:50;34.42;;;16.90;;
73632;SDS011;61927;50.080;14.418;2023-02-13T06:51:16;45.60;;;24.58;;
73632;SDS011;61927;50.080;14.418;2023-02-13T06:53:41;33.10;;;17.50;;
73632;SDS011;61927;50.080;14.418;2023-02-13T06:56:08;29.35;;;17.10;;
73632;SDS011;61927;50.080;14.418;2023-02-13T06:58:33;37.58;;;17.08;;
73632;SDS011;61927;50.080;14.418;2023-02-13T07:00:59;28.10;;;15.25;;
73632;SDS011;61927;50.080;14.418;2023-02-13T07:03:24;28.48;;;15.60;;
73632;SDS011;61927;50.080;14.418;2023-02-13T07:05:50;36.42;;;15.30;;
73632;SDS011;61927;50.080;14.418;2023-02-13T07:08:16;31.20;;;15.18;;
73632;SDS011;61927;50.080;14.418;2023-02-13T07:10:42;27.27;;;15.40;;
73632;SDS011;61927;50.080;14.418;2023-02-13T07:13:08;32.33;;;15.63;;
73632;SDS011;61927;50.080;14.418;2023-02-13T07:15:35;31.85;;;16.60;;
73632;SDS011;61927;50.080;14.418;2023-02-13T07:18:01;28.55;;;16.60;;
73632;SDS011;61927;50.080;14.418;2023-02-13T07:20:28;27.92;;;15.50;;
73632;SDS011;61927;50.080;14.418;2023-02-13T07:22:57;30.42;;;15.27;;
73632;SDS011;61927;50.080;14.418;2023-02-13T07:25:26;29.33;;;15.17;;
73632;SDS011;61927;50.080;14.418;2023-02-13T07:27:53;31.58;;;15.93;;
73632;SDS011;61927;50.080;14.418;2023-02-13T07:30:19;28.25;;;15.18;;
73632;SDS011;61927;50.080;14.418;2023-02-13T07:32:44;28.55;;;14.93;;
73632;SDS011;61927;50.080;14.418;2023-02-13T07:35:10;27.83;;;15.77;;
73632;SDS011;61927;50.080;14.418;2023-02-13T07:37:37;28.15;;;14.65;;
73632;SDS011;61927;50.080;14.418;2023-02-13T07:40:03;24.95;;;14.65;;
73632;SDS011;61927;50.080;14.418;2023-02-13T07:42:32;31.98;;;15.75;;
73632;SDS011;61927;50.080;14.418;2023-02-13T07:44:59;31.52;;;15.38;;
73632;SDS011;61927;50.080;14.418;2023-02-13T07:47:25;29.00;;;14.95;;
73632;SDS011;61927;50.080;14.418;2023-02-13T07:49:50;27.80;;;14.88;;
73632;SDS011;61927;50.080;14.418;2023-02-13T07:52:16;24.85;;;13.93;;
73632;SDS011;61927;50.080;14.418;2023-02-13T07:54:41;36.40;;;15.45;;
73632;SDS011;61927;50.080;14.418;2023-02-13T07:57:15;28.65;;;14.52;;
73632;SDS011;61927;50.080;14.418;2023-02-13T07:59:41;25.75;;;14.90;;
73632;SDS011;61927;50.080;14.418;2023-02-13T08:02:10;36.20;;;14.68;;
73632;SDS011;61927;50.080;14.418;2023-02-13T08:04:39;37.00;;;15.67;;
73632;SDS011;61927;50.080;14.418;2023-02-13T08:07:06;35.60;;;17.92;;
73632;SDS011;61927;50.080;14.418;2023-02-13T08:09:32;28.65;;;15.40;;
73632;SDS011;61927;50.080;14.418;2023-02-13T08:12:16;29.65;;;15.20;;
73632;SDS011;61927;50.080;14.418;2023-02-13T08:14:42;30.85;;;14.93;;
73632;SDS011;61927;50.080;14.418;2023-02-13T08:17:08;27.45;;;14.52;;
73632;SDS011;61927;50.080;14.418;2023-02-13T08:19:34;24.20;;;14.00;;
73632;SDS011;61927;50.080;14.418;2023-02-13T08:22:00;32.10;;;15.15;;
73632;SDS011;61927;50.080;14.418;2023-02-13T08:24:26;30.65;;;14.73;;
73632;SDS011;61927;50.080;14.418;2023-02-13T08:26:51;27.30;;;15.07;;
73632;SDS011;61927;50.080;14.418;2023-02-13T08:29:17;30.70;;;14.50;;
73632;SDS011;61927;50.080;14.418;2023-02-13T08:31:42;25.38;;;14.50;;
73632;SDS011;61927;50.080;14.418;2023-02-13T08:34:08;28.70;;;14.77;;
73632;SDS011;61927;50.080;14.418;2023-02-13T08:36:34;38.65;;;18.23;;
73632;SDS011;61927;50.080;14.418;2023-02-13T08:39:01;26.33;;;15.05;;
73632;SDS011;61927;50.080;14.418;2023-02-13T08:41:26;29.23;;;14.77;;
73632;SDS011;61927;50.080;14.418;2023-02-13T08:43:52;27.13;;;14.75;;
73632;SDS011;61927;50.080;14.418;2023-02-13T08:46:19;26.48;;;14.07;;
73632;SDS011;61927;50.080;14.418;2023-02-13T08:48:44;31.80;;;14.75;;
73632;SDS011;61927;50.080;14.418;2023-02-13T08:51:11;24.30;;;13.77;;
73632;SDS011;61927;50.080;14.418;2023-02-13T08:53:38;37.95;;;15.80;;
73632;SDS011;61927;50.080;14.418;2023-02-13T08:56:04;30.98;;;15.40;;
73632;SDS011;61927;50.080;14.418;2023-02-13T08:58:30;30.33;;;16.27;;
73632;SDS011;61927;50.080;14.418;2023-02-13T09:00:56;26.05;;;14.23;;
73632;SDS011;61927;50.080;14.418;2023-02-13T09:03:22;27.98;;;14.90;;
73632;SDS011;61927;50.080;14.418;2023-02-13T09:05:48;29.05;;;15.60;;
73632;SDS011;61927;50.080;14.418;2023-02-13T09:08:14;28.77;;;15.15;;
73632;SDS011;61927;50.080;14.418;2023-02-13T09:10:40;29.00;;;15.93;;
73632;SDS011;61927;50.080;14.418;2023-02-13T09:13:08;33.85;;;15.80;;
73632;SDS011;61927;50.080;14.418;2023-02-13T09:15:36;30.58;;;14.55;;
73632;SDS011;61927;50.080;14.418;2023-02-13T09:18:04;29.75;;;15.25;;
73632;SDS011;61927;50.080;14.418;2023-02-13T09:20:30;34.63;;;14.98;;
73632;SDS011;61927;50.080;14.418;2023-02-13T09:22:55;30.38;;;15.50;;
73632;SDS011;61927;50.080;14.418;2023-02-13T09:25:21;28.25;;;14.85;;
73632;SDS011;61927;50.080;14.418;2023-02-13T09:27:46;27.90;;;15.20;;
73632;SDS011;61927;50.080;14.418;2023-02-13T09:30:14;29.13;;;15.95;;
73632;SDS011;61927;50.080;14.418;2023-02-13T09:32:47;27.98;;;15.48;;
73632;SDS011;61927;50.080;14.418;2023-02-13T09:35:14;35.10;;;16.23;;
73632;SDS011;61927;50.080;14.418;2023-02-13T09:37:40;26.52;;;14.68;;
73632;SDS011;61927;50.080;14.418;2023-02-13T09:40:12;26.10;;;15.15;;
73632;SDS011;61927;50.080;14.418;2023-02-13T09:42:42;25.85;;;15.52;;
73632;SDS011;61927;50.080;14.418;2023-02-13T09:45:09;36.55;;;16.08;;
73632;SDS011;61927;50.080;14.418;2023-02-13T09:47:38;23.58;;;15.13;;
73632;SDS011;61927;50.080;14.418;2023-02-13T09:50:18;30.23;;;15.32;;
73632;SDS011;61927;50.080;14.418;2023-02-13T09:52:50;27.90;;;14.98;;
73632;SDS011;61927;50.080;14.418;2023-02-13T09:55:20;33.67;;;16.45;;
73632;SDS011;61927;50.080;14.418;2023-02-13T09:57:52;31.75;;;15.70;;
73632;SDS011;61927;50.080;14.418;2023-02-13T10:00:26;26.98;;;15.45;;
73632;SDS011;61927;50.080;14.418;2023-02-13T10:16:29;36.78;;;15.88;;
73632;SDS011;61927;50.080;14.418;2023-02-13T10:21:35;27.40;;;14.70;;
73632;SDS011;61927;50.080;14.418;2023-02-13T10:24:11;27.85;;;14.27;;
73632;SDS011;61927;50.080;14.418;2023-02-13T10:26:41;32.22;;;16.65;;
73632;SDS011;61927;50.080;14.418;2023-02-13T10:29:16;30.65;;;15.20;;
73632;SDS011;61927;50.080;14.418;2023-02-13T10:32:08;30.95;;;14.75;;
73632;SDS011;61927;50.080;14.418;2023-02-13T10:34:41;30.17;;;14.80;;
73632;SDS011;61927;50.080;14.418;2023-02-13T10:37:11;30.10;;;14.52;;
73632;SDS011;61927;50.080;14.418;2023-02-13T10:39:40;35.20;;;15.23;;
73632;SDS011;61927;50.080;14.418;2023-02-13T10:55:22;36.22;;;14.85;;
73632;SDS011;61927;50.080;14.418;2023-02-13T11:00:28;32.90;;;16.05;;
73632;SDS011;61927;50.080;14.418;2023-02-13T11:03:03;31.88;;;15.32;;
73632;SDS011;61927;50.080;14.418;2023-02-13T11:05:30;32.97;;;16.27;;
73632;SDS011;61927;50.080;14.418;2023-02-13T11:07:56;26.33;;;15.00;;
73632;SDS011;61927;50.080;14.418;2023-02-13T11:10:25;35.20;;;14.30;;
73632;SDS011;61927;50.080;14.418;2023-02-13T11:12:51;32.60;;;13.93;;
73632;SDS011;61927;50.080;14.418;2023-02-13T11:17:50;21.83;;;12.90;;
73632;SDS011;61927;50.080;14.418;2023-02-13T11:20:25;23.67;;;12.10;;
73632;SDS011;61927;50.080;14.418;2023-02-13T11:22:52;27.00;;;13.80;;
73632;SDS011;61927;50.080;14.418;2023-02-13T11:25:24;33.47;;;14.07;;
73632;SDS011;61927;50.080;14.418;2023-02-13T11:27:52;36.40;;;13.23;;
73632;SDS011;61927;50.080;14.418;2023-02-13T11:30:34;31.60;;;13.30;;
73632;SDS011;61927;50.080;14.418;2023-02-13T11:33:05;37.63;;;15.07;;
73632;SDS011;61927;50.080;14.418;2023-02-13T11:35:43;31.10;;;13.48;;
73632;SDS011;61927;50.080;14.418;2023-02-13T11:40:46;29.15;;;13.52;;
73632;SDS011;61927;50.080;14.418;2023-02-13T11:46:03;51.60;;;16.95;;
73632;SDS011;61927;50.080;14.418;2023-02-13T11:48:29;23.45;;;12.05;;
73632;SDS011;61927;50.080;14.418;2023-02-13T11:50:55;26.55;;;10.23;;
73632;SDS011;61927;50.080;14.418;2023-02-13T11:53:26;21.77;;;8.75;;
73632;SDS011;61927;50.080;14.418;2023-02-13T11:56:02;16.13;;;7.63;;
73632;SDS011;61927;50.080;14.418;2023-02-13T11:58:31;22.02;;;8.23;;
73632;SDS011;61927;50.080;14.418;2023-02-13T12:04:03;27.95;;;8.80;;
73632;SDS011;61927;50.080;14.418;2023-02-13T12:06:31;11.48;;;6.43;;
73632;SDS011;61927;50.080;14.418;2023-02-13T12:09:04;10.80;;;5.97;;
73632;SDS011;61927;50.080;14.418;2023-02-13T12:11:44;23.52;;;5.55;;
73632;SDS011;61927;50.080;14.418;2023-02-13T12:14:18;18.60;;;8.85;;
73632;SDS011;61927;50.080;14.418;2023-02-13T12:19:20;15.25;;;7.50;;
73632;SDS011;61927;50.080;14.418;2023-02-13T12:22:38;12.23;;;6.95;;
73632;SDS011;61927;50.080;14.418;2023-02-13T12:25:11;18.33;;;7.38;;
73632;SDS011;61927;50.080;14.418;2023-02-13T12:30:39;7.80;;;5.10;;
73632;SDS011;61927;50.080;14.418;2023-02-13T12:41:32;7.57;;;4.03;;
73632;SDS011;61927;50.080;14.418;2023-02-13T12:44:11;8.85;;;4.20;;
73632;SDS011;61927;50.080;14.418;2023-02-13T12:47:00;7.63;;;5.53;;
73632;SDS011;61927;50.080;14.418;2023-02-13T12:49:42;4.30;;;3.45;;
73632;SDS011;61927;50.080;14.418;2023-02-13T12:52:39;3.17;;;2.75;;
73632;SDS011;61927;50.080;14.418;2023-02-13T13:00:52;7.00;;;4.32;;
73632;SDS011;61927;50.080;14.418;2023-02-13T13:14:42;6.30;;;3.65;;
73632;SDS011;61927;50.080;14.418;2023-02-13T13:17:23;11.93;;;4.78;;
73632;SDS011;61927;50.080;14.418;2023-02-13T13:22:36;8.23;;;3.90;;
73632;SDS011;61927;50.080;14.418;2023-02-13T13:27:56;7.47;;;3.90;;
73632;SDS011;61927;50.080;14.418;2023-02-13T13:30:28;6.25;;;4.07;;
73632;SDS011;61927;50.080;14.418;2023-02-13T13:33:10;7.85;;;4.85;;
73632;SDS011;61927;50.080;14.418;2023-02-13T13:35:41;10.18;;;6.90;;
73632;SDS011;61927;50.080;14.418;2023-02-13T13:43:39;4.63;;;3.35;;
73632;SDS011;61927;50.080;14.418;2023-02-13T13:49:11;38.78;;;24.52;;
73632;SDS011;61927;50.080;14.418;2023-02-13T13:51:48;5.50;;;4.07;;
73632;SDS011;61927;50.080;14.418;2023-02-13T14:07:35;6.82;;;2.92;;
73632;SDS011;61927;50.080;14.418;2023-02-13T14:10:03;3.72;;;3.28;;
73632;SDS011;61927;50.080;14.418;2023-02-13T14:14:56;6.88;;;3.15;;
73632;SDS011;61927;50.080;14.418;2023-02-13T14:25:42;7.43;;;3.65;;
73632;SDS011;61927;50.080;14.418;2023-02-13T14:28:17;10.90;;;2.92;;
73632;SDS011;61927;50.080;14.418;2023-02-13T14:30:47;8.10;;;3.00;;
73632;SDS011;61927;50.080;14.418;2023-02-13T14:33:22;7.43;;;3.50;;
73632;SDS011;61927;50.080;14.418;2023-02-13T14:36:02;10.10;;;3.75;;
73632;SDS011;61927;50.080;14.418;2023-02-13T14:38:31;11.35;;;3.80;;
73632;SDS011;61927;50.080;14.418;2023-02-13T14:40:58;7.47;;;3.60;;
73632;SDS011;61927;50.080;14.418;2023-02-13T14:48:32;7.10;;;4.15;;
73632;SDS011;61927;50.080;14.418;2023-02-13T14:51:03;5.75;;;4.53;;
73632;SDS011;61927;50.080;14.418;2023-02-13T14:53:34;6.20;;;3.92;;
73632;SDS011;61927;50.080;14.418;2023-02-13T14:56:25;8.35;;;5.45;;
73632;SDS011;61927;50.080;14.418;2023-02-13T15:01:29;5.55;;;3.95;;
73632;SDS011;61927;50.080;14.418;2023-02-13T15:03:59;3.88;;;3.53;;
73632;SDS011;61927;50.080;14.418;2023-02-13T15:06:31;4.43;;;3.60;;
73632;SDS011;61927;50.080;14.418;2023-02-13T15:09:02;3.85;;;3.45;;
73632;SDS011;61927;50.080;14.418;2023-02-13T15:11:35;7.15;;;3.58;;
73632;SDS011;61927;50.080;14.418;2023-02-13T15:16:50;6.13;;;3.83;;
73632;SDS011;61927;50.080;14.418;2023-02-13T15:19:29;7.30;;;4.13;;
73632;SDS011;61927;50.080;14.418;2023-02-13T15:21:58;6.57;;;4.05;;
73632;SDS011;61927;50.080;14.418;2023-02-13T15:24:26;4.85;;;3.88;;
73632;SDS011;61927;50.080;14.418;2023-02-13T15:26:59;6.28;;;3.88;;
73632;SDS011;61927;50.080;14.418;2023-02-13T15:29:27;6.35;;;4.00;;
73632;SDS011;61927;50.080;14.418;2023-02-13T15:31:55;3.85;;;3.55;;
73632;SDS011;61927;50.080;14.418;2023-02-13T15:36:49;4.57;;;3.47;;
73632;SDS011;61927;50.080;14.418;2023-02-13T15:39:16;16.58;;;4.28;;
73632;SDS011;61927;50.080;14.418;2023-02-13T15:41:44;3.78;;;3.47;;
73632;SDS011;61927;50.080;14.418;2023-02-13T15:44:25;12.18;;;3.78;;
73632;SDS011;61927;50.080;14.418;2023-02-13T15:47:06;10.48;;;4.55;;
73632;SDS011;61927;50.080;14.418;2023-02-13T15:49:41;7.90;;;4.10;;
73632;SDS011;61927;50.080;14.418;2023-02-13T15:52:19;10.60;;;4.78;;
73632;SDS011;61927;50.080;14.418;2023-02-13T15:54:50;5.85;;;4.88;;
73632;SDS011;61927;50.080;14.418;2023-02-13T15:57:18;6.07;;;4.63;;
73632;SDS011;61927;50.080;14.418;2023-02-13T15:59:45;12.02;;;4.97;;
73632;SDS011;61927;50.080;14.418;2023-02-13T16:02:19;16.42;;;5.65;;
73632;SDS011;61927;50.080;14.418;2023-02-13T16:04:48;11.00;;;5.55;;
73632;SDS011;61927;50.080;14.418;2023-02-13T16:07:16;16.67;;;4.90;;
73632;SDS011;61927;50.080;14.418;2023-02-13T16:09:42;11.13;;;6.15;;
73632;SDS011;61927;50.080;14.418;2023-02-13T16:12:21;13.25;;;5.40;;
73632;SDS011;61927;50.080;14.418;2023-02-13T16:14:53;14.38;;;6.10;;
73632;SDS011;61927;50.080;14.418;2023-02-13T16:17:26;12.77;;;6.40;;
73632;SDS011;61927;50.080;14.418;2023-02-13T16:19:54;10.02;;;5.90;;
73632;SDS011;61927;50.080;14.418;2023-02-13T16:24:56;14.55;;;5.50;;
73632;SDS011;61927;50.080;14.418;2023-02-13T16:27:53;12.85;;;5.72;;
73632;SDS011;61927;50.080;14.418;2023-02-13T16:30:32;14.82;;;6.20;;
73632;SDS011;61927;50.080;14.418;2023-02-13T16:48:56;11.93;;;6.07;;
73632;SDS011;61927;50.080;14.418;2023-02-13T16:59:55;11.65;;;6.72;;
73632;SDS011;61927;50.080;14.418;2023-02-13T17:07:23;14.70;;;6.70;;
73632;SDS011;61927;50.080;14.418;2023-02-13T17:09:56;21.70;;;6.70;;
73632;SDS011;61927;50.080;14.418;2023-02-13T17:12:24;15.55;;;7.03;;
73632;SDS011;61927;50.080;14.418;2023-02-13T17:14:53;12.52;;;7.13;;
73632;SDS011;61927;50.080;14.418;2023-02-13T17:17:21;20.00;;;7.35;;
73632;SDS011;61927;50.080;14.418;2023-02-13T17:19:48;27.65;;;9.05;;
73632;SDS011;61927;50.080;14.418;2023-02-13T17:23:00;15.65;;;10.55;;
73632;SDS011;61927;50.080;14.418;2023-02-13T17:27:56;12.02;;;7.70;;
73632;SDS011;61927;50.080;14.418;2023-02-13T17:30:31;17.67;;;7.30;;
73632;SDS011;61927;50.080;14.418;2023-02-13T17:33:06;14.75;;;7.10;;
73632;SDS011;61927;50.080;14.418;2023-02-13T17:35:36;19.38;;;8.07;;
73632;SDS011;61927;50.080;14.418;2023-02-13T17:38:02;11.13;;;7.47;;
73632;SDS011;61927;50.080;14.418;2023-02-13T17:40:28;19.50;;;8.25;;
73632;SDS011;61927;50.080;14.418;2023-02-13T17:42:56;12.95;;;7.72;;
73632;SDS011;61927;50.080;14.418;2023-02-13T17:45:25;15.65;;;7.80;;
73632;SDS011;61927;50.080;14.418;2023-02-13T17:47:52;11.55;;;7.28;;
73632;SDS011;61927;50.080;14.418;2023-02-13T17:50:18;20.70;;;8.52;;
73632;SDS011;61927;50.080;14.418;2023-02-13T17:52:45;11.82;;;7.97;;
73632;SDS011;61927;50.080;14.418;2023-02-13T17:55:14;22.58;;;7.50;;
73632;SDS011;61927;50.080;14.418;2023-02-13T17:57:43;17.27;;;7.75;;
73632;SDS011;61927;50.080;14.418;2023-02-13T18:00:09;12.68;;;7.57;;